sensor_id;sensor_type;location;lat;lon;timestamp;P1;durP1;ratioP1;P2;durP2;ratioP2
4700;SDS011;8724;51.272;6.554;2024-03-22T00:00:45;14.77;;;13.03;;
4700;SDS011;8724;51.272;6.554;2024-03-22T00:03:12;13.90;;;12.20;;
4700;SDS011;8724;51.272;6.554;2024-03-22T00:05:40;16.13;;;11.70;;
4700;SDS011;8724;51.272;6.554;2024-03-22T00:08:07;15.43;;;12.60;;
4700;SDS011;8724;51.272;6.554;2024-03-22T00:10:34;17.10;;;13.10;;
4700;SDS011;8724;51.272;6.554;2024-03-22T00:13:02;18.47;;;14.50;;
4700;SDS011;8724;51.272;6.554;2024-03-22T00:15:28;14.23;;;12.07;;
4700;SDS011;8724;51.272;6.554;2024-03-22T00:17:55;15.07;;;12.97;;
4700;SDS011;8724;51.272;6.554;2024-03-22T00:20:22;19.20;;;14.00;;
4700;SDS011;8724;51.272;6.554;2024-03-22T00:22:50;16.67;;;13.37;;
4700;SDS011;8724;51.272;6.554;2024-03-22T00:25:17;18.10;;;14.33;;
4700;SDS011;8724;51.272;6.554;2024-03-22T00:27:44;17.90;;;13.20;;
4700;SDS011;8724;51.272;6.554;2024-03-22T00:30:10;17.30;;;12.50;;
4700;SDS011;8724;51.272;6.554;2024-03-22T00:32:37;19.83;;;12.83;;
4700;SDS011;8724;51.272;6.554;2024-03-22T00:35:03;14.70;;;12.40;;
4700;SDS011;8724;51.272;6.554;2024-03-22T00:37:31;20.30;;;13.77;;
4700;SDS011;8724;51.272;6.554;2024-03-22T00:39:58;20.93;;;13.20;;
4700;SDS011;8724;51.272;6.554;2024-03-22T00:42:25;14.93;;;12.50;;
4700;SDS011;8724;51.272;6.554;2024-03-22T00:44:51;13.73;;;12.20;;
4700;SDS011;8724;51.272;6.554;2024-03-22T00:47:20;15.93;;;13.23;;
4700;SDS011;8724;51.272;6.554;2024-03-22T00:49:46;18.97;;;13.50;;
4700;SDS011;8724;51.272;6.554;2024-03-22T00:52:13;17.53;;;12.60;;
4700;SDS011;8724;51.272;6.554;2024-03-22T00:54:39;15.47;;;13.80;;
4700;SDS011;8724;51.272;6.554;2024-03-22T00:57:08;19.23;;;12.50;;
4700;SDS011;8724;51.272;6.554;2024-03-22T00:59:34;17.60;;;13.87;;
4700;SDS011;8724;51.272;6.554;2024-03-22T01:02:02;16.73;;;13.27;;
4700;SDS011;8724;51.272;6.554;2024-03-22T01:04:29;14.93;;;12.73;;
4700;SDS011;8724;51.272;6.554;2024-03-22T01:06:56;16.03;;;12.77;;
4700;SDS011;8724;51.272;6.554;2024-03-22T01:09:22;17.20;;;13.40;;
4700;SDS011;8724;51.272;6.554;2024-03-22T01:11:49;17.27;;;13.57;;
4700;SDS011;8724;51.272;6.554;2024-03-22T01:14:17;21.20;;;14.87;;
4700;SDS011;8724;51.272;6.554;2024-03-22T01:16:44;18.37;;;13.77;;
4700;SDS011;8724;51.272;6.554;2024-03-22T01:19:10;18.30;;;13.50;;
4700;SDS011;8724;51.272;6.554;2024-03-22T01:21:37;20.93;;;13.97;;
4700;SDS011;8724;51.272;6.554;2024-03-22T01:24:04;18.70;;;13.97;;
4700;SDS011;8724;51.272;6.554;2024-03-22T01:26:31;21.57;;;15.70;;
4700;SDS011;8724;51.272;6.554;2024-03-22T01:28:57;17.33;;;13.23;;
4700;SDS011;8724;51.272;6.554;2024-03-22T01:31:25;18.87;;;14.20;;
4700;SDS011;8724;51.272;6.554;2024-03-22T01:33:53;17.37;;;13.20;;
4700;SDS011;8724;51.272;6.554;2024-03-22T01:36:20;17.90;;;14.53;;
4700;SDS011;8724;51.272;6.554;2024-03-22T01:38:46;15.83;;;13.37;;
4700;SDS011;8724;51.272;6.554;2024-03-22T01:41:13;19.77;;;14.03;;
4700;SDS011;8724;51.272;6.554;2024-03-22T01:43:40;21.87;;;15.40;;
4700;SDS011;8724;51.272;6.554;2024-03-22T01:46:07;19.20;;;13.83;;
4700;SDS011;8724;51.272;6.554;2024-03-22T01:48:35;16.63;;;14.83;;
4700;SDS011;8724;51.272;6.554;2024-03-22T01:51:02;18.33;;;13.60;;
4700;SDS011;8724;51.272;6.554;2024-03-22T01:53:30;16.70;;;13.23;;
4700;SDS011;8724;51.272;6.554;2024-03-22T01:55:57;20.47;;;14.30;;
4700;SDS011;8724;51.272;6.554;2024-03-22T01:58:24;17.90;;;13.67;;
4700;SDS011;8724;51.272;6.554;2024-03-22T02:00:51;18.30;;;12.47;;
4700;SDS011;8724;51.272;6.554;2024-03-22T02:03:17;15.97;;;12.80;;
4700;SDS011;8724;51.272;6.554;2024-03-22T02:05:46;18.80;;;13.93;;
4700;SDS011;8724;51.272;6.554;2024-03-22T02:08:12;18.87;;;14.00;;
4700;SDS011;8724;51.272;6.554;2024-03-22T02:10:39;19.63;;;13.77;;
4700;SDS011;8724;51.272;6.554;2024-03-22T02:13:05;17.47;;;13.47;;
4700;SDS011;8724;51.272;6.554;2024-03-22T02:15:32;17.83;;;14.17;;
4700;SDS011;8724;51.272;6.554;2024-03-22T02:17:59;17.67;;;12.57;;
4700;SDS011;8724;51.272;6.554;2024-03-22T02:20:26;17.53;;;13.73;;
4700;SDS011;8724;51.272;6.554;2024-03-22T02:22:53;18.23;;;14.27;;
4700;SDS011;8724;51.272;6.554;2024-03-22T02:25:22;16.80;;;13.60;;
4700;SDS011;8724;51.272;6.554;2024-03-22T02:27:48;18.83;;;13.60;;
4700;SDS011;8724;51.272;6.554;2024-03-22T02:30:16;19.60;;;15.30;;
4700;SDS011;8724;51.272;6.554;2024-03-22T02:32:42;17.80;;;13.60;;
4700;SDS011;8724;51.272;6.554;2024-03-22T02:35:10;18.30;;;13.43;;
4700;SDS011;8724;51.272;6.554;2024-03-22T02:37:36;16.10;;;12.30;;
4700;SDS011;8724;51.272;6.554;2024-03-22T02:40:04;17.27;;;13.30;;
4700;SDS011;8724;51.272;6.554;2024-03-22T02:42:32;18.40;;;12.90;;
4700;SDS011;8724;51.272;6.554;2024-03-22T02:44:59;17.60;;;13.60;;
4700;SDS011;8724;51.272;6.554;2024-03-22T02:47:26;20.03;;;14.70;;
4700;SDS011;8724;51.272;6.554;2024-03-22T02:49:53;14.90;;;11.93;;
4700;SDS011;8724;51.272;6.554;2024-03-22T02:52:19;17.20;;;14.00;;
4700;SDS011;8724;51.272;6.554;2024-03-22T02:54:46;17.60;;;14.30;;
4700;SDS011;8724;51.272;6.554;2024-03-22T02:57:12;18.17;;;14.07;;
4700;SDS011;8724;51.272;6.554;2024-03-22T02:59:41;19.53;;;14.20;;
4700;SDS011;8724;51.272;6.554;2024-03-22T03:02:07;15.80;;;12.80;;
4700;SDS011;8724;51.272;6.554;2024-03-22T03:04:34;20.33;;;14.40;;
4700;SDS011;8724;51.272;6.554;2024-03-22T03:07:00;19.10;;;14.43;;
4700;SDS011;8724;51.272;6.554;2024-03-22T03:09:27;20.00;;;14.60;;
4700;SDS011;8724;51.272;6.554;2024-03-22T03:11:53;19.60;;;14.33;;
4700;SDS011;8724;51.272;6.554;2024-03-22T03:14:21;21.10;;;14.47;;
4700;SDS011;8724;51.272;6.554;2024-03-22T03:16:48;20.90;;;14.47;;
4700;SDS011;8724;51.272;6.554;2024-03-22T03:19:15;19.87;;;15.43;;
4700;SDS011;8724;51.272;6.554;2024-03-22T03:21:42;18.30;;;13.90;;
4700;SDS011;8724;51.272;6.554;2024-03-22T03:24:09;19.03;;;13.70;;
4700;SDS011;8724;51.272;6.554;2024-03-22T03:26:36;19.77;;;14.43;;
4700;SDS011;8724;51.272;6.554;2024-03-22T03:29:03;18.50;;;14.40;;
4700;SDS011;8724;51.272;6.554;2024-03-22T03:31:29;22.53;;;14.10;;
4700;SDS011;8724;51.272;6.554;2024-03-22T03:33:58;19.90;;;14.57;;
4700;SDS011;8724;51.272;6.554;2024-03-22T03:36:24;19.67;;;15.10;;
4700;SDS011;8724;51.272;6.554;2024-03-22T03:38:51;17.87;;;14.37;;
4700;SDS011;8724;51.272;6.554;2024-03-22T03:41:17;17.67;;;14.40;;
4700;SDS011;8724;51.272;6.554;2024-03-22T03:43:44;17.47;;;14.60;;
4700;SDS011;8724;51.272;6.554;2024-03-22T03:46:10;15.57;;;13.90;;
4700;SDS011;8724;51.272;6.554;2024-03-22T03:48:38;18.73;;;14.10;;
4700;SDS011;8724;51.272;6.554;2024-03-22T03:51:05;19.53;;;14.67;;
4700;SDS011;8724;51.272;6.554;2024-03-22T03:53:33;17.13;;;14.47;;
4700;SDS011;8724;51.272;6.554;2024-03-22T03:55:59;18.40;;;15.57;;
4700;SDS011;8724;51.272;6.554;2024-03-22T03:58:26;17.70;;;14.43;;
4700;SDS011;8724;51.272;6.554;2024-03-22T04:00:53;17.23;;;13.50;;
4700;SDS011;8724;51.272;6.554;2024-03-22T04:03:20;16.60;;;14.20;;
4700;SDS011;8724;51.272;6.554;2024-03-22T04:05:46;16.80;;;13.80;;
4700;SDS011;8724;51.272;6.554;2024-03-22T04:08:24;15.83;;;14.23;;
4700;SDS011;8724;51.272;6.554;2024-03-22T04:10:51;20.00;;;14.60;;
4700;SDS011;8724;51.272;6.554;2024-03-22T04:13:18;19.17;;;13.90;;
4700;SDS011;8724;51.272;6.554;2024-03-22T04:15:44;19.47;;;14.50;;
4700;SDS011;8724;51.272;6.554;2024-03-22T04:18:11;18.10;;;13.93;;
4700;SDS011;8724;51.272;6.554;2024-03-22T04:20:37;15.40;;;12.50;;
4700;SDS011;8724;51.272;6.554;2024-03-22T04:23:04;20.13;;;13.90;;
4700;SDS011;8724;51.272;6.554;2024-03-22T04:25:32;15.13;;;13.00;;
4700;SDS011;8724;51.272;6.554;2024-03-22T04:27:59;19.80;;;14.43;;
4700;SDS011;8724;51.272;6.554;2024-03-22T04:30:25;17.37;;;14.30;;
4700;SDS011;8724;51.272;6.554;2024-03-22T04:32:52;15.87;;;11.97;;
4700;SDS011;8724;51.272;6.554;2024-03-22T04:35:18;15.80;;;13.03;;
4700;SDS011;8724;51.272;6.554;2024-03-22T04:37:45;16.90;;;13.07;;
4700;SDS011;8724;51.272;6.554;2024-03-22T04:40:13;15.73;;;13.63;;
4700;SDS011;8724;51.272;6.554;2024-03-22T04:42:41;16.13;;;12.70;;
4700;SDS011;8724;51.272;6.554;2024-03-22T04:45:09;15.27;;;12.53;;
4700;SDS011;8724;51.272;6.554;2024-03-22T04:47:36;15.43;;;12.60;;
4700;SDS011;8724;51.272;6.554;2024-03-22T04:50:03;17.50;;;12.50;;
4700;SDS011;8724;51.272;6.554;2024-03-22T04:52:31;16.10;;;12.63;;
4700;SDS011;8724;51.272;6.554;2024-03-22T04:54:57;18.17;;;13.25;;
4700;SDS011;8724;51.272;6.554;2024-03-22T04:57:24;14.73;;;11.33;;
4700;SDS011;8724;51.272;6.554;2024-03-22T04:59:52;18.03;;;12.67;;
4700;SDS011;8724;51.272;6.554;2024-03-22T05:02:19;14.73;;;11.80;;
4700;SDS011;8724;51.272;6.554;2024-03-22T05:04:45;13.33;;;11.30;;
4700;SDS011;8724;51.272;6.554;2024-03-22T05:07:14;16.73;;;11.70;;
4700;SDS011;8724;51.272;6.554;2024-03-22T05:09:41;15.10;;;12.37;;
4700;SDS011;8724;51.272;6.554;2024-03-22T05:12:08;14.23;;;11.90;;
4700;SDS011;8724;51.272;6.554;2024-03-22T05:14:34;16.40;;;11.57;;
4700;SDS011;8724;51.272;6.554;2024-03-22T05:17:03;16.87;;;12.40;;
4700;SDS011;8724;51.272;6.554;2024-03-22T05:19:31;12.73;;;10.30;;
4700;SDS011;8724;51.272;6.554;2024-03-22T05:21:58;15.47;;;11.90;;
4700;SDS011;8724;51.272;6.554;2024-03-22T05:24:25;13.90;;;10.97;;
4700;SDS011;8724;51.272;6.554;2024-03-22T05:26:53;15.03;;;10.90;;
4700;SDS011;8724;51.272;6.554;2024-03-22T05:29:19;17.53;;;10.63;;
4700;SDS011;8724;51.272;6.554;2024-03-22T05:31:47;15.97;;;11.17;;
4700;SDS011;8724;51.272;6.554;2024-03-22T05:34:15;14.70;;;10.87;;
4700;SDS011;8724;51.272;6.554;2024-03-22T05:36:43;14.60;;;11.73;;
4700;SDS011;8724;51.272;6.554;2024-03-22T05:39:09;13.03;;;11.70;;
4700;SDS011;8724;51.272;6.554;2024-03-22T05:41:37;13.60;;;10.17;;
4700;SDS011;8724;51.272;6.554;2024-03-22T05:44:03;14.07;;;10.80;;
4700;SDS011;8724;51.272;6.554;2024-03-22T05:46:31;13.97;;;10.57;;
4700;SDS011;8724;51.272;6.554;2024-03-22T05:48:58;17.20;;;10.37;;
4700;SDS011;8724;51.272;6.554;2024-03-22T05:51:25;13.57;;;10.70;;
4700;SDS011;8724;51.272;6.554;2024-03-22T05:53:53;13.40;;;10.27;;
4700;SDS011;8724;51.272;6.554;2024-03-22T05:56:19;10.87;;;9.80;;
4700;SDS011;8724;51.272;6.554;2024-03-22T05:58:46;13.60;;;10.03;;
4700;SDS011;8724;51.272;6.554;2024-03-22T06:01:12;11.87;;;10.67;;
4700;SDS011;8724;51.272;6.554;2024-03-22T06:03:39;15.90;;;10.37;;
4700;SDS011;8724;51.272;6.554;2024-03-22T06:06:07;13.97;;;11.53;;
4700;SDS011;8724;51.272;6.554;2024-03-22T06:08:34;14.73;;;10.70;;
4700;SDS011;8724;51.272;6.554;2024-03-22T06:11:06;11.60;;;9.97;;
4700;SDS011;8724;51.272;6.554;2024-03-22T06:13:33;12.33;;;10.50;;
4700;SDS011;8724;51.272;6.554;2024-03-22T06:16:00;11.63;;;10.43;;
4700;SDS011;8724;51.272;6.554;2024-03-22T06:18:26;12.07;;;10.07;;
4700;SDS011;8724;51.272;6.554;2024-03-22T06:20:53;16.87;;;11.57;;
4700;SDS011;8724;51.272;6.554;2024-03-22T06:23:20;13.60;;;11.33;;
4700;SDS011;8724;51.272;6.554;2024-03-22T06:25:52;14.07;;;10.60;;
4700;SDS011;8724;51.272;6.554;2024-03-22T06:28:18;13.30;;;10.63;;
4700;SDS011;8724;51.272;6.554;2024-03-22T06:30:45;13.80;;;11.00;;
4700;SDS011;8724;51.272;6.554;2024-03-22T06:33:11;12.47;;;10.87;;
4700;SDS011;8724;51.272;6.554;2024-03-22T06:35:38;12.03;;;9.60;;
4700;SDS011;8724;51.272;6.554;2024-03-22T06:38:06;14.60;;;9.53;;
4700;SDS011;8724;51.272;6.554;2024-03-22T06:40:33;11.43;;;9.33;;
4700;SDS011;8724;51.272;6.554;2024-03-22T06:43:01;15.30;;;10.57;;
4700;SDS011;8724;51.272;6.554;2024-03-22T06:45:29;13.10;;;10.53;;
4700;SDS011;8724;51.272;6.554;2024-03-22T06:47:55;12.40;;;10.43;;
4700;SDS011;8724;51.272;6.554;2024-03-22T06:50:22;13.77;;;10.00;;
4700;SDS011;8724;51.272;6.554;2024-03-22T06:52:52;13.83;;;11.00;;
4700;SDS011;8724;51.272;6.554;2024-03-22T06:55:20;11.80;;;10.27;;
4700;SDS011;8724;51.272;6.554;2024-03-22T06:57:47;16.50;;;10.70;;
4700;SDS011;8724;51.272;6.554;2024-03-22T07:00:16;11.67;;;9.87;;
4700;SDS011;8724;51.272;6.554;2024-03-22T07:02:43;12.00;;;10.27;;
4700;SDS011;8724;51.272;6.554;2024-03-22T07:05:11;12.93;;;10.40;;
4700;SDS011;8724;51.272;6.554;2024-03-22T07:07:37;11.07;;;9.67;;
4700;SDS011;8724;51.272;6.554;2024-03-22T07:10:04;13.73;;;9.90;;
4700;SDS011;8724;51.272;6.554;2024-03-22T07:12:31;10.40;;;9.30;;
4700;SDS011;8724;51.272;6.554;2024-03-22T07:14:59;11.03;;;9.47;;
4700;SDS011;8724;51.272;6.554;2024-03-22T07:17:27;16.50;;;11.03;;
4700;SDS011;8724;51.272;6.554;2024-03-22T07:19:54;12.97;;;11.50;;
4700;SDS011;8724;51.272;6.554;2024-03-22T07:22:21;14.53;;;11.83;;
4700;SDS011;8724;51.272;6.554;2024-03-22T07:24:48;14.13;;;10.53;;
4700;SDS011;8724;51.272;6.554;2024-03-22T07:27:16;14.67;;;11.07;;
4700;SDS011;8724;51.272;6.554;2024-03-22T07:29:43;13.93;;;10.80;;
4700;SDS011;8724;51.272;6.554;2024-03-22T07:32:10;12.83;;;11.10;;
4700;SDS011;8724;51.272;6.554;2024-03-22T07:34:38;15.40;;;11.27;;
4700;SDS011;8724;51.272;6.554;2024-03-22T07:37:05;14.47;;;11.67;;
4700;SDS011;8724;51.272;6.554;2024-03-22T07:39:32;13.40;;;11.40;;
4700;SDS011;8724;51.272;6.554;2024-03-22T07:41:58;13.67;;;12.00;;
4700;SDS011;8724;51.272;6.554;2024-03-22T07:44:25;15.57;;;11.80;;
4700;SDS011;8724;51.272;6.554;2024-03-22T07:46:54;13.90;;;10.80;;
4700;SDS011;8724;51.272;6.554;2024-03-22T07:49:21;15.13;;;11.57;;
4700;SDS011;8724;51.272;6.554;2024-03-22T07:51:49;17.77;;;9.97;;
4700;SDS011;8724;51.272;6.554;2024-03-22T07:54:16;13.77;;;11.20;;
4700;SDS011;8724;51.272;6.554;2024-03-22T07:56:42;12.90;;;10.87;;
4700;SDS011;8724;51.272;6.554;2024-03-22T07:59:09;13.80;;;11.50;;
4700;SDS011;8724;51.272;6.554;2024-03-22T08:01:35;13.37;;;11.90;;
4700;SDS011;8724;51.272;6.554;2024-03-22T08:04:02;12.83;;;10.77;;
4700;SDS011;8724;51.272;6.554;2024-03-22T08:06:28;13.23;;;11.47;;
4700;SDS011;8724;51.272;6.554;2024-03-22T08:08:57;12.90;;;11.43;;
4700;SDS011;8724;51.272;6.554;2024-03-22T08:11:23;13.13;;;10.80;;
4700;SDS011;8724;51.272;6.554;2024-03-22T08:13:50;19.83;;;12.50;;
4700;SDS011;8724;51.272;6.554;2024-03-22T08:16:17;15.57;;;11.70;;
4700;SDS011;8724;51.272;6.554;2024-03-22T08:22:02;16.90;;;10.47;;
4700;SDS011;8724;51.272;6.554;2024-03-22T08:24:31;15.70;;;11.00;;
4700;SDS011;8724;51.272;6.554;2024-03-22T08:26:57;17.60;;;11.53;;
4700;SDS011;8724;51.272;6.554;2024-03-22T08:29:24;14.27;;;10.87;;
4700;SDS011;8724;51.272;6.554;2024-03-22T08:31:51;12.30;;;10.57;;
4700;SDS011;8724;51.272;6.554;2024-03-22T08:34:18;9.93;;;8.83;;
4700;SDS011;8724;51.272;6.554;2024-03-22T08:36:44;16.87;;;11.10;;
4700;SDS011;8724;51.272;6.554;2024-03-22T08:39:11;16.47;;;11.90;;
4700;SDS011;8724;51.272;6.554;2024-03-22T08:41:39;14.50;;;11.00;;
4700;SDS011;8724;51.272;6.554;2024-03-22T08:44:06;13.23;;;10.33;;
4700;SDS011;8724;51.272;6.554;2024-03-22T08:46:32;17.60;;;11.30;;
4700;SDS011;8724;51.272;6.554;2024-03-22T08:48:59;11.63;;;10.20;;
4700;SDS011;8724;51.272;6.554;2024-03-22T08:51:26;11.20;;;10.00;;
4700;SDS011;8724;51.272;6.554;2024-03-22T08:53:54;13.13;;;11.43;;
4700;SDS011;8724;51.272;6.554;2024-03-22T08:56:20;14.93;;;13.10;;
4700;SDS011;8724;51.272;6.554;2024-03-22T08:58:49;15.50;;;11.70;;
4700;SDS011;8724;51.272;6.554;2024-03-22T09:01:15;16.10;;;12.13;;
4700;SDS011;8724;51.272;6.554;2024-03-22T09:03:42;15.47;;;12.20;;
4700;SDS011;8724;51.272;6.554;2024-03-22T09:06:11;14.73;;;11.13;;
4700;SDS011;8724;51.272;6.554;2024-03-22T09:08:38;17.33;;;11.97;;
4700;SDS011;8724;51.272;6.554;2024-03-22T09:11:04;16.57;;;10.97;;
4700;SDS011;8724;51.272;6.554;2024-03-22T09:13:32;14.27;;;10.43;;
4700;SDS011;8724;51.272;6.554;2024-03-22T09:16:01;16.03;;;12.00;;
4700;SDS011;8724;51.272;6.554;2024-03-22T09:18:29;13.33;;;11.27;;
4700;SDS011;8724;51.272;6.554;2024-03-22T09:20:55;11.80;;;10.53;;
4700;SDS011;8724;51.272;6.554;2024-03-22T09:23:22;17.50;;;11.57;;
4700;SDS011;8724;51.272;6.554;2024-03-22T09:25:49;13.97;;;10.57;;
4700;SDS011;8724;51.272;6.554;2024-03-22T09:28:16;12.30;;;8.60;;
4700;SDS011;8724;51.272;6.554;2024-03-22T09:30:42;10.13;;;8.93;;
4700;SDS011;8724;51.272;6.554;2024-03-22T09:33:11;9.53;;;8.60;;
4700;SDS011;8724;51.272;6.554;2024-03-22T09:35:37;10.47;;;8.60;;
4700;SDS011;8724;51.272;6.554;2024-03-22T09:38:04;10.67;;;8.07;;
4700;SDS011;8724;51.272;6.554;2024-03-22T09:40:31;9.20;;;8.20;;
4700;SDS011;8724;51.272;6.554;2024-03-22T09:43:01;9.07;;;8.17;;
4700;SDS011;8724;51.272;6.554;2024-03-22T09:45:29;10.17;;;8.57;;
4700;SDS011;8724;51.272;6.554;2024-03-22T09:47:58;10.03;;;7.17;;
4700;SDS011;8724;51.272;6.554;2024-03-22T09:50:26;9.73;;;7.23;;
4700;SDS011;8724;51.272;6.554;2024-03-22T09:52:53;7.93;;;6.70;;
4700;SDS011;8724;51.272;6.554;2024-03-22T09:55:22;8.00;;;7.03;;
4700;SDS011;8724;51.272;6.554;2024-03-22T09:57:50;11.43;;;8.17;;
4700;SDS011;8724;51.272;6.554;2024-03-22T10:00:19;7.83;;;6.90;;
4700;SDS011;8724;51.272;6.554;2024-03-22T10:02:47;11.63;;;7.40;;
4700;SDS011;8724;51.272;6.554;2024-03-22T10:05:15;8.03;;;6.37;;
4700;SDS011;8724;51.272;6.554;2024-03-22T10:07:44;6.87;;;6.17;;
4700;SDS011;8724;51.272;6.554;2024-03-22T10:10:10;7.50;;;6.60;;
4700;SDS011;8724;51.272;6.554;2024-03-22T10:12:39;6.80;;;5.87;;
4700;SDS011;8724;51.272;6.554;2024-03-22T10:15:06;6.30;;;5.60;;
4700;SDS011;8724;51.272;6.554;2024-03-22T10:17:35;6.40;;;5.70;;
4700;SDS011;8724;51.272;6.554;2024-03-22T10:20:01;8.63;;;6.27;;
4700;SDS011;8724;51.272;6.554;2024-03-22T10:22:29;8.67;;;6.80;;
4700;SDS011;8724;51.272;6.554;2024-03-22T10:24:56;10.00;;;7.20;;
4700;SDS011;8724;51.272;6.554;2024-03-22T10:27:26;9.67;;;6.63;;
4700;SDS011;8724;51.272;6.554;2024-03-22T10:29:54;7.00;;;6.30;;
4700;SDS011;8724;51.272;6.554;2024-03-22T10:32:22;10.43;;;7.37;;
4700;SDS011;8724;51.272;6.554;2024-03-22T10:34:49;9.10;;;6.50;;
4700;SDS011;8724;51.272;6.554;2024-03-22T10:37:17;13.40;;;7.10;;
4700;SDS011;8724;51.272;6.554;2024-03-22T10:39:43;8.57;;;7.67;;
4700;SDS011;8724;51.272;6.554;2024-03-22T10:42:13;8.27;;;7.10;;
4700;SDS011;8724;51.272;6.554;2024-03-22T10:44:42;10.80;;;7.90;;
4700;SDS011;8724;51.272;6.554;2024-03-22T10:47:09;10.13;;;7.80;;
4700;SDS011;8724;51.272;6.554;2024-03-22T10:49:36;8.00;;;7.20;;
4700;SDS011;8724;51.272;6.554;2024-03-22T10:52:04;7.97;;;6.70;;
4700;SDS011;8724;51.272;6.554;2024-03-22T10:54:36;10.80;;;7.07;;
4700;SDS011;8724;51.272;6.554;2024-03-22T10:57:06;7.83;;;7.03;;
4700;SDS011;8724;51.272;6.554;2024-03-22T10:59:38;10.00;;;7.23;;
4700;SDS011;8724;51.272;6.554;2024-03-22T11:02:10;8.00;;;6.40;;
4700;SDS011;8724;51.272;6.554;2024-03-22T11:04:37;7.20;;;5.60;;
4700;SDS011;8724;51.272;6.554;2024-03-22T11:07:04;9.47;;;7.47;;
4700;SDS011;8724;51.272;6.554;2024-03-22T11:09:31;10.40;;;7.27;;
4700;SDS011;8724;51.272;6.554;2024-03-22T11:11:58;7.90;;;6.67;;
4700;SDS011;8724;51.272;6.554;2024-03-22T11:14:24;8.53;;;7.20;;
4700;SDS011;8724;51.272;6.554;2024-03-22T11:16:53;11.87;;;6.90;;
4700;SDS011;8724;51.272;6.554;2024-03-22T11:19:19;10.47;;;8.80;;
4700;SDS011;8724;51.272;6.554;2024-03-22T11:21:46;10.67;;;8.13;;
4700;SDS011;8724;51.272;6.554;2024-03-22T11:24:12;14.57;;;7.80;;
4700;SDS011;8724;51.272;6.554;2024-03-22T11:26:39;9.90;;;8.00;;
4700;SDS011;8724;51.272;6.554;2024-03-22T11:29:06;11.93;;;6.60;;
4700;SDS011;8724;51.272;6.554;2024-03-22T11:31:33;6.97;;;6.27;;
4700;SDS011;8724;51.272;6.554;2024-03-22T11:34:02;8.70;;;6.50;;
4700;SDS011;8724;51.272;6.554;2024-03-22T11:36:29;9.80;;;6.10;;
4700;SDS011;8724;51.272;6.554;2024-03-22T11:38:55;9.70;;;7.63;;
4700;SDS011;8724;51.272;6.554;2024-03-22T11:41:24;8.27;;;7.27;;
4700;SDS011;8724;51.272;6.554;2024-03-22T11:43:53;9.20;;;7.50;;
4700;SDS011;8724;51.272;6.554;2024-03-22T11:46:23;9.87;;;7.33;;
4700;SDS011;8724;51.272;6.554;2024-03-22T11:48:53;7.97;;;6.20;;
4700;SDS011;8724;51.272;6.554;2024-03-22T11:51:22;8.37;;;6.67;;
4700;SDS011;8724;51.272;6.554;2024-03-22T11:53:48;11.90;;;8.60;;
4700;SDS011;8724;51.272;6.554;2024-03-22T11:56:17;12.10;;;8.40;;
4700;SDS011;8724;51.272;6.554;2024-03-22T11:58:45;10.30;;;8.40;;
4700;SDS011;8724;51.272;6.554;2024-03-22T12:01:14;12.10;;;9.20;;
4700;SDS011;8724;51.272;6.554;2024-03-22T12:03:40;9.47;;;8.43;;
4700;SDS011;8724;51.272;6.554;2024-03-22T12:06:10;10.37;;;7.50;;
4700;SDS011;8724;51.272;6.554;2024-03-22T12:08:37;10.00;;;6.27;;
4700;SDS011;8724;51.272;6.554;2024-03-22T12:11:06;9.40;;;7.13;;
4700;SDS011;8724;51.272;6.554;2024-03-22T12:13:33;7.53;;;5.93;;
4700;SDS011;8724;51.272;6.554;2024-03-22T12:16:01;8.33;;;7.13;;
4700;SDS011;8724;51.272;6.554;2024-03-22T12:18:29;10.43;;;8.50;;
4700;SDS011;8724;51.272;6.554;2024-03-22T12:20:56;9.60;;;8.10;;
4700;SDS011;8724;51.272;6.554;2024-03-22T12:23:22;10.20;;;7.67;;
4700;SDS011;8724;51.272;6.554;2024-03-22T12:25:52;11.17;;;7.97;;
4700;SDS011;8724;51.272;6.554;2024-03-22T12:28:18;10.33;;;8.33;;
4700;SDS011;8724;51.272;6.554;2024-03-22T12:30:46;9.27;;;7.40;;
4700;SDS011;8724;51.272;6.554;2024-03-22T12:33:13;8.63;;;7.50;;
4700;SDS011;8724;51.272;6.554;2024-03-22T12:35:40;9.67;;;8.03;;
4700;SDS011;8724;51.272;6.554;2024-03-22T12:38:07;12.00;;;8.00;;
4700;SDS011;8724;51.272;6.554;2024-03-22T12:40:36;10.60;;;7.80;;
4700;SDS011;8724;51.272;6.554;2024-03-22T12:43:04;10.93;;;7.40;;
4700;SDS011;8724;51.272;6.554;2024-03-22T12:45:31;12.73;;;9.20;;
4700;SDS011;8724;51.272;6.554;2024-03-22T12:47:58;9.23;;;8.20;;
4700;SDS011;8724;51.272;6.554;2024-03-22T12:50:26;11.20;;;8.70;;
4700;SDS011;8724;51.272;6.554;2024-03-22T12:52:52;13.40;;;8.90;;
4700;SDS011;8724;51.272;6.554;2024-03-22T12:55:20;10.60;;;9.50;;
4700;SDS011;8724;51.272;6.554;2024-03-22T12:57:46;9.83;;;8.30;;
4700;SDS011;8724;51.272;6.554;2024-03-22T13:00:15;11.50;;;9.73;;
4700;SDS011;8724;51.272;6.554;2024-03-22T13:02:44;11.00;;;9.50;;
4700;SDS011;8724;51.272;6.554;2024-03-22T13:05:11;10.17;;;9.03;;
4700;SDS011;8724;51.272;6.554;2024-03-22T13:07:38;11.13;;;9.53;;
4700;SDS011;8724;51.272;6.554;2024-03-22T13:10:06;10.07;;;8.50;;
4700;SDS011;8724;51.272;6.554;2024-03-22T13:12:33;12.30;;;8.83;;
4700;SDS011;8724;51.272;6.554;2024-03-22T13:15:00;13.20;;;10.00;;
4700;SDS011;8724;51.272;6.554;2024-03-22T13:17:28;12.23;;;9.63;;
4700;SDS011;8724;51.272;6.554;2024-03-22T13:19:55;13.60;;;8.37;;
4700;SDS011;8724;51.272;6.554;2024-03-22T13:22:21;10.30;;;9.03;;
4700;SDS011;8724;51.272;6.554;2024-03-22T13:24:49;9.80;;;8.70;;
4700;SDS011;8724;51.272;6.554;2024-03-22T13:27:16;10.77;;;9.60;;
4700;SDS011;8724;51.272;6.554;2024-03-22T13:29:45;12.37;;;9.50;;
4700;SDS011;8724;51.272;6.554;2024-03-22T13:32:12;13.57;;;10.33;;
4700;SDS011;8724;51.272;6.554;2024-03-22T13:34:40;12.03;;;9.20;;
4700;SDS011;8724;51.272;6.554;2024-03-22T13:37:08;11.90;;;9.30;;
4700;SDS011;8724;51.272;6.554;2024-03-22T13:39:35;15.00;;;12.33;;
4700;SDS011;8724;51.272;6.554;2024-03-22T13:42:01;12.40;;;8.63;;
4700;SDS011;8724;51.272;6.554;2024-03-22T13:44:29;11.53;;;9.10;;
4700;SDS011;8724;51.272;6.554;2024-03-22T13:46:58;10.27;;;9.37;;
4700;SDS011;8724;51.272;6.554;2024-03-22T13:49:25;9.77;;;8.83;;
4700;SDS011;8724;51.272;6.554;2024-03-22T13:51:53;10.17;;;8.93;;
4700;SDS011;8724;51.272;6.554;2024-03-22T13:54:20;9.43;;;8.23;;
4700;SDS011;8724;51.272;6.554;2024-03-22T13:56:46;8.73;;;8.03;;
4700;SDS011;8724;51.272;6.554;2024-03-22T13:59:13;10.70;;;8.43;;
4700;SDS011;8724;51.272;6.554;2024-03-22T14:01:41;10.27;;;9.27;;
4700;SDS011;8724;51.272;6.554;2024-03-22T14:04:10;10.30;;;9.30;;
4700;SDS011;8724;51.272;6.554;2024-03-22T14:06:37;11.30;;;10.10;;
4700;SDS011;8724;51.272;6.554;2024-03-22T14:09:06;13.93;;;9.97;;
4700;SDS011;8724;51.272;6.554;2024-03-22T14:11:35;11.50;;;9.53;;
4700;SDS011;8724;51.272;6.554;2024-03-22T14:14:02;9.73;;;8.93;;
4700;SDS011;8724;51.272;6.554;2024-03-22T14:16:29;11.50;;;10.40;;
4700;SDS011;8724;51.272;6.554;2024-03-22T14:18:56;10.37;;;9.37;;
4700;SDS011;8724;51.272;6.554;2024-03-22T14:21:22;11.20;;;9.87;;
4700;SDS011;8724;51.272;6.554;2024-03-22T14:23:49;10.40;;;9.27;;
4700;SDS011;8724;51.272;6.554;2024-03-22T14:26:18;11.47;;;10.27;;
4700;SDS011;8724;51.272;6.554;2024-03-22T14:28:45;12.00;;;10.50;;
4700;SDS011;8724;51.272;6.554;2024-03-22T14:31:12;11.17;;;9.67;;
4700;SDS011;8724;51.272;6.554;2024-03-22T14:33:40;10.10;;;9.00;;
4700;SDS011;8724;51.272;6.554;2024-03-22T14:36:07;11.50;;;10.50;;
4700;SDS011;8724;51.272;6.554;2024-03-22T14:38:34;11.73;;;10.53;;
4700;SDS011;8724;51.272;6.554;2024-03-22T14:41:01;11.77;;;10.63;;
4700;SDS011;8724;51.272;6.554;2024-03-22T14:43:30;15.17;;;11.67;;
4700;SDS011;8724;51.272;6.554;2024-03-22T14:46:00;12.70;;;10.60;;
4700;SDS011;8724;51.272;6.554;2024-03-22T14:48:28;16.30;;;11.20;;
4700;SDS011;8724;51.272;6.554;2024-03-22T14:50:55;13.10;;;11.80;;
4700;SDS011;8724;51.272;6.554;2024-03-22T14:53:22;13.60;;;11.00;;
4700;SDS011;8724;51.272;6.554;2024-03-22T14:55:51;12.77;;;10.90;;
4700;SDS011;8724;51.272;6.554;2024-03-22T14:58:19;15.07;;;12.30;;